sensor_id;sensor_type;location;lat;lon;timestamp;pressure;altitude;pressure_sealevel;temperature
19061;BMP280;9663;48.996;8.334;2023-07-08T00:01:20;100158.94;;;27.37
19061;BMP280;9663;48.996;8.334;2023-07-08T00:03:47;100159.41;;;27.31
19061;BMP280;9663;48.996;8.334;2023-07-08T00:06:22;100159.63;;;27.28
19061;BMP280;9663;48.996;8.334;2023-07-08T00:08:48;100153.34;;;27.30
19061;BMP280;9663;48.996;8.334;2023-07-08T00:11:17;100158.22;;;27.35
19061;BMP280;9663;48.996;8.334;2023-07-08T00:13:44;100156.00;;;27.41
19061;BMP280;9663;48.996;8.334;2023-07-08T00:16:12;100147.75;;;27.47
19061;BMP280;9663;48.996;8.334;2023-07-08T00:18:38;100148.97;;;27.54
19061;BMP280;9663;48.996;8.334;2023-07-08T00:21:12;100146.63;;;27.62
19061;BMP280;9663;48.996;8.334;2023-07-08T00:23:44;100154.69;;;27.70
19061;BMP280;9663;48.996;8.334;2023-07-08T00:26:22;100160.38;;;27.75
19061;BMP280;9663;48.996;8.334;2023-07-08T00:28:49;100152.78;;;27.83
19061;BMP280;9663;48.996;8.334;2023-07-08T00:31:15;100149.72;;;27.89
19061;BMP280;9663;48.996;8.334;2023-07-08T00:33:41;100148.44;;;27.94
19061;BMP280;9663;48.996;8.334;2023-07-08T00:36:15;100154.84;;;28.01
19061;BMP280;9663;48.996;8.334;2023-07-08T00:38:42;100148.56;;;28.03
19061;BMP280;9663;48.996;8.334;2023-07-08T00:41:38;100157.31;;;28.02
19061;BMP280;9663;48.996;8.334;2023-07-08T00:44:05;100150.75;;;28.09
19061;BMP280;9663;48.996;8.334;2023-07-08T00:46:37;100155.84;;;28.11
19061;BMP280;9663;48.996;8.334;2023-07-08T00:52:28;100153.59;;;28.06
19061;BMP280;9663;48.996;8.334;2023-07-08T00:54:59;100150.97;;;28.06
19061;BMP280;9663;48.996;8.334;2023-07-08T00:57:31;100152.63;;;28.07
19061;BMP280;9663;48.996;8.334;2023-07-08T01:00:04;100153.34;;;28.09
19061;BMP280;9663;48.996;8.334;2023-07-08T01:02:36;100145.75;;;28.06
19061;BMP280;9663;48.996;8.334;2023-07-08T01:05:20;100155.19;;;27.96
19061;BMP280;9663;48.996;8.334;2023-07-08T01:07:56;100153.53;;;27.85
19061;BMP280;9663;48.996;8.334;2023-07-08T01:10:38;100145.81;;;27.72
19061;BMP280;9663;48.996;8.334;2023-07-08T01:13:07;100142.69;;;27.56
19061;BMP280;9663;48.996;8.334;2023-07-08T01:15:42;100142.84;;;27.43
19061;BMP280;9663;48.996;8.334;2023-07-08T01:18:10;100153.13;;;27.33
19061;BMP280;9663;48.996;8.334;2023-07-08T01:20:37;100152.13;;;27.23
19061;BMP280;9663;48.996;8.334;2023-07-08T01:23:03;100145.94;;;27.13
19061;BMP280;9663;48.996;8.334;2023-07-08T01:25:31;100145.56;;;27.07
19061;BMP280;9663;48.996;8.334;2023-07-08T01:27:58;100141.63;;;27.02
19061;BMP280;9663;48.996;8.334;2023-07-08T01:30:25;100147.06;;;26.99
19061;BMP280;9663;48.996;8.334;2023-07-08T01:32:58;100144.56;;;26.97
19061;BMP280;9663;48.996;8.334;2023-07-08T01:35:24;100150.72;;;26.96
19061;BMP280;9663;48.996;8.334;2023-07-08T01:37:59;100148.22;;;26.95
19061;BMP280;9663;48.996;8.334;2023-07-08T01:40:34;100152.69;;;26.93
19061;BMP280;9663;48.996;8.334;2023-07-08T01:43:02;100156.38;;;26.90
19061;BMP280;9663;48.996;8.334;2023-07-08T01:45:38;100155.94;;;26.84
19061;BMP280;9663;48.996;8.334;2023-07-08T01:48:09;100151.16;;;26.78
19061;BMP280;9663;48.996;8.334;2023-07-08T01:50:40;100151.00;;;26.68
19061;BMP280;9663;48.996;8.334;2023-07-08T01:53:15;100150.09;;;26.57
19061;BMP280;9663;48.996;8.334;2023-07-08T01:55:41;100151.09;;;26.44
19061;BMP280;9663;48.996;8.334;2023-07-08T01:58:07;100136.56;;;26.29
19061;BMP280;9663;48.996;8.334;2023-07-08T02:00:32;100145.16;;;26.17
19061;BMP280;9663;48.996;8.334;2023-07-08T02:02:58;100137.38;;;26.05
19061;BMP280;9663;48.996;8.334;2023-07-08T02:05:24;100148.47;;;25.94
19061;BMP280;9663;48.996;8.334;2023-07-08T02:07:49;100149.94;;;25.86
19061;BMP280;9663;48.996;8.334;2023-07-08T02:10:15;100159.72;;;25.82
19061;BMP280;9663;48.996;8.334;2023-07-08T02:12:41;100158.16;;;25.80
19061;BMP280;9663;48.996;8.334;2023-07-08T02:15:09;100165.44;;;25.75
19061;BMP280;9663;48.996;8.334;2023-07-08T02:17:35;100163.44;;;25.66
19061;BMP280;9663;48.996;8.334;2023-07-08T02:20:00;100183.03;;;25.58
19061;BMP280;9663;48.996;8.334;2023-07-08T02:22:26;100183.56;;;25.50
19061;BMP280;9663;48.996;8.334;2023-07-08T02:24:53;100187.47;;;25.43
19061;BMP280;9663;48.996;8.334;2023-07-08T02:27:19;100183.41;;;25.39
19061;BMP280;9663;48.996;8.334;2023-07-08T02:29:44;100187.25;;;25.34
19061;BMP280;9663;48.996;8.334;2023-07-08T02:32:10;100190.13;;;25.30
19061;BMP280;9663;48.996;8.334;2023-07-08T02:34:37;100192.19;;;25.25
19061;BMP280;9663;48.996;8.334;2023-07-08T02:37:02;100191.66;;;25.20
19061;BMP280;9663;48.996;8.334;2023-07-08T02:39:28;100191.84;;;25.17
19061;BMP280;9663;48.996;8.334;2023-07-08T02:41:54;100192.91;;;25.14
19061;BMP280;9663;48.996;8.334;2023-07-08T02:44:20;100186.94;;;25.12
19061;BMP280;9663;48.996;8.334;2023-07-08T02:46:45;100186.94;;;25.12
19061;BMP280;9663;48.996;8.334;2023-07-08T02:49:11;100189.63;;;25.11
19061;BMP280;9663;48.996;8.334;2023-07-08T02:51:37;100194.81;;;25.11
19061;BMP280;9663;48.996;8.334;2023-07-08T02:54:03;100191.31;;;25.12
19061;BMP280;9663;48.996;8.334;2023-07-08T02:56:29;100193.81;;;25.13
19061;BMP280;9663;48.996;8.334;2023-07-08T02:58:55;100192.13;;;25.12
19061;BMP280;9663;48.996;8.334;2023-07-08T03:01:20;100187.03;;;25.11
19061;BMP280;9663;48.996;8.334;2023-07-08T03:03:47;100179.25;;;25.11
19061;BMP280;9663;48.996;8.334;2023-07-08T03:06:14;100190.41;;;25.13
19061;BMP280;9663;48.996;8.334;2023-07-08T03:08:40;100188.81;;;25.10
19061;BMP280;9663;48.996;8.334;2023-07-08T03:11:07;100182.91;;;25.08
19061;BMP280;9663;48.996;8.334;2023-07-08T03:13:34;100189.09;;;25.06
19061;BMP280;9663;48.996;8.334;2023-07-08T03:16:02;100193.66;;;25.02
19061;BMP280;9663;48.996;8.334;2023-07-08T03:18:29;100204.97;;;25.01
19061;BMP280;9663;48.996;8.334;2023-07-08T03:20:56;100205.06;;;25.00
19061;BMP280;9663;48.996;8.334;2023-07-08T03:23:24;100192.44;;;24.94
19061;BMP280;9663;48.996;8.334;2023-07-08T03:25:51;100200.31;;;24.92
19061;BMP280;9663;48.996;8.334;2023-07-08T03:28:17;100199.69;;;24.89
19061;BMP280;9663;48.996;8.334;2023-07-08T03:30:44;100198.97;;;24.87
19061;BMP280;9663;48.996;8.334;2023-07-08T03:33:11;100196.47;;;24.86
19061;BMP280;9663;48.996;8.334;2023-07-08T03:35:37;100199.88;;;24.86
19061;BMP280;9663;48.996;8.334;2023-07-08T03:38:06;100210.25;;;24.86
19061;BMP280;9663;48.996;8.334;2023-07-08T03:40:32;100208.50;;;24.87
19061;BMP280;9663;48.996;8.334;2023-07-08T03:42:58;100207.56;;;24.88
19061;BMP280;9663;48.996;8.334;2023-07-08T03:45:25;100197.19;;;24.88
19061;BMP280;9663;48.996;8.334;2023-07-08T03:47:51;100210.88;;;24.89
19061;BMP280;9663;48.996;8.334;2023-07-08T03:50:21;100215.66;;;24.97
19061;BMP280;9663;48.996;8.334;2023-07-08T03:53:12;100206.94;;;24.98
19061;BMP280;9663;48.996;8.334;2023-07-08T03:55:40;100212.25;;;25.09
19061;BMP280;9663;48.996;8.334;2023-07-08T03:58:06;100206.69;;;25.15
19061;BMP280;9663;48.996;8.334;2023-07-08T04:00:32;100215.03;;;25.20
19061;BMP280;9663;48.996;8.334;2023-07-08T04:03:04;100213.16;;;25.22
19061;BMP280;9663;48.996;8.334;2023-07-08T04:05:30;100211.47;;;25.21
19061;BMP280;9663;48.996;8.334;2023-07-08T04:07:56;100211.47;;;25.21
19061;BMP280;9663;48.996;8.334;2023-07-08T04:10:21;100207.03;;;25.23
19061;BMP280;9663;48.996;8.334;2023-07-08T04:12:47;100205.28;;;25.23
19061;BMP280;9663;48.996;8.334;2023-07-08T04:15:13;100211.81;;;25.29
19061;BMP280;9663;48.996;8.334;2023-07-08T04:17:45;100208.84;;;25.34
19061;BMP280;9663;48.996;8.334;2023-07-08T04:20:17;100216.13;;;25.42
19061;BMP280;9663;48.996;8.334;2023-07-08T04:22:44;100215.00;;;25.46
19061;BMP280;9663;48.996;8.334;2023-07-08T04:25:11;100212.84;;;25.52
19061;BMP280;9663;48.996;8.334;2023-07-08T04:27:38;100209.91;;;25.57
19061;BMP280;9663;48.996;8.334;2023-07-08T04:30:06;100213.28;;;25.59
19061;BMP280;9663;48.996;8.334;2023-07-08T04:32:32;100216.69;;;25.59
19061;BMP280;9663;48.996;8.334;2023-07-08T04:34:58;100223.50;;;25.62
19061;BMP280;9663;48.996;8.334;2023-07-08T04:37:24;100225.88;;;25.65
19061;BMP280;9663;48.996;8.334;2023-07-08T04:39:49;100219.66;;;25.67
19061;BMP280;9663;48.996;8.334;2023-07-08T04:42:16;100233.91;;;25.74
19061;BMP280;9663;48.996;8.334;2023-07-08T04:44:44;100245.44;;;25.82
19061;BMP280;9663;48.996;8.334;2023-07-08T04:47:10;100251.91;;;25.89
19061;BMP280;9663;48.996;8.334;2023-07-08T04:49:39;100262.50;;;25.99
19061;BMP280;9663;48.996;8.334;2023-07-08T04:52:09;100285.50;;;26.05
19061;BMP280;9663;48.996;8.334;2023-07-08T04:54:35;100286.97;;;26.09
19061;BMP280;9663;48.996;8.334;2023-07-08T04:57:00;100304.84;;;26.13
19061;BMP280;9663;48.996;8.334;2023-07-08T04:59:26;100296.66;;;26.19
19061;BMP280;9663;48.996;8.334;2023-07-08T05:01:52;100314.34;;;26.26
19061;BMP280;9663;48.996;8.334;2023-07-08T05:04:22;100318.22;;;26.33
19061;BMP280;9663;48.996;8.334;2023-07-08T05:06:49;100331.53;;;26.41
19061;BMP280;9663;48.996;8.334;2023-07-08T05:09:15;100325.50;;;26.53
19061;BMP280;9663;48.996;8.334;2023-07-08T05:11:41;100322.91;;;26.65
19061;BMP280;9663;48.996;8.334;2023-07-08T05:14:07;100340.38;;;26.76
19061;BMP280;9663;48.996;8.334;2023-07-08T05:16:34;100327.66;;;26.84
19061;BMP280;9663;48.996;8.334;2023-07-08T05:19:03;100332.41;;;26.91
19061;BMP280;9663;48.996;8.334;2023-07-08T05:21:30;100337.66;;;27.02
19061;BMP280;9663;48.996;8.334;2023-07-08T05:24:00;100325.66;;;27.12
19061;BMP280;9663;48.996;8.334;2023-07-08T05:26:26;100333.66;;;27.21
19061;BMP280;9663;48.996;8.334;2023-07-08T05:28:52;100335.59;;;27.30
19061;BMP280;9663;48.996;8.334;2023-07-08T05:31:17;100333.28;;;27.38
19061;BMP280;9663;48.996;8.334;2023-07-08T05:33:43;100333.59;;;27.46
19061;BMP280;9663;48.996;8.334;2023-07-08T05:36:09;100326.91;;;27.54
19061;BMP280;9663;48.996;8.334;2023-07-08T05:38:34;100326.97;;;27.65
19061;BMP280;9663;48.996;8.334;2023-07-08T05:41:00;100342.78;;;27.75
19061;BMP280;9663;48.996;8.334;2023-07-08T05:43:29;100339.59;;;27.82
19061;BMP280;9663;48.996;8.334;2023-07-08T05:46:02;100322.06;;;27.84
19061;BMP280;9663;48.996;8.334;2023-07-08T05:48:31;100325.28;;;27.88
19061;BMP280;9663;48.996;8.334;2023-07-08T05:50:57;100321.66;;;27.90
19061;BMP280;9663;48.996;8.334;2023-07-08T05:53:23;100324.13;;;27.92
19061;BMP280;9663;48.996;8.334;2023-07-08T05:55:50;100318.09;;;27.91
19061;BMP280;9663;48.996;8.334;2023-07-08T05:58:16;100312.75;;;27.93
19061;BMP280;9663;48.996;8.334;2023-07-08T06:00:43;100326.53;;;27.95
19061;BMP280;9663;48.996;8.334;2023-07-08T06:03:10;100337.66;;;27.96
19061;BMP280;9663;48.996;8.334;2023-07-08T06:05:40;100348.69;;;28.00
19061;BMP280;9663;48.996;8.334;2023-07-08T06:08:07;100348.69;;;28.00
19061;BMP280;9663;48.996;8.334;2023-07-08T06:10:34;100351.19;;;28.01
19061;BMP280;9663;48.996;8.334;2023-07-08T06:13:00;100350.03;;;28.05
19061;BMP280;9663;48.996;8.334;2023-07-08T06:15:25;100358.03;;;28.15
19061;BMP280;9663;48.996;8.334;2023-07-08T06:17:51;100359.59;;;28.28
19061;BMP280;9663;48.996;8.334;2023-07-08T06:20:17;100360.00;;;28.45
19061;BMP280;9663;48.996;8.334;2023-07-08T06:22:43;100361.34;;;28.62
19061;BMP280;9663;48.996;8.334;2023-07-08T06:25:08;100365.06;;;28.81
19061;BMP280;9663;48.996;8.334;2023-07-08T06:27:34;100363.53;;;29.00
19061;BMP280;9663;48.996;8.334;2023-07-08T06:29:59;100367.56;;;29.15
19061;BMP280;9663;48.996;8.334;2023-07-08T06:32:25;100366.66;;;29.27
19061;BMP280;9663;48.996;8.334;2023-07-08T06:34:51;100368.63;;;29.34
19061;BMP280;9663;48.996;8.334;2023-07-08T06:37:16;100369.94;;;29.40
19061;BMP280;9663;48.996;8.334;2023-07-08T06:39:42;100375.25;;;29.49
19061;BMP280;9663;48.996;8.334;2023-07-08T06:42:08;100373.34;;;29.62
19061;BMP280;9663;48.996;8.334;2023-07-08T06:44:33;100372.84;;;29.68
19061;BMP280;9663;48.996;8.334;2023-07-08T06:46:59;100374.50;;;29.69
19061;BMP280;9663;48.996;8.334;2023-07-08T06:49:25;100384.84;;;29.70
19061;BMP280;9663;48.996;8.334;2023-07-08T06:51:51;100372.03;;;29.78
19061;BMP280;9663;48.996;8.334;2023-07-08T06:54:16;100374.84;;;29.86
19061;BMP280;9663;48.996;8.334;2023-07-08T06:56:42;100378.38;;;29.96
19061;BMP280;9663;48.996;8.334;2023-07-08T06:59:09;100376.53;;;30.08
19061;BMP280;9663;48.996;8.334;2023-07-08T07:01:35;100380.31;;;30.14
19061;BMP280;9663;48.996;8.334;2023-07-08T07:04:03;100374.19;;;30.25
19061;BMP280;9663;48.996;8.334;2023-07-08T07:06:29;100374.53;;;30.31
19061;BMP280;9663;48.996;8.334;2023-07-08T07:08:55;100383.41;;;30.40
19061;BMP280;9663;48.996;8.334;2023-07-08T07:11:21;100379.34;;;30.47
19061;BMP280;9663;48.996;8.334;2023-07-08T07:13:47;100371.78;;;30.53
19061;BMP280;9663;48.996;8.334;2023-07-08T07:16:13;100373.09;;;30.58
19061;BMP280;9663;48.996;8.334;2023-07-08T07:18:38;100369.13;;;30.44
19061;BMP280;9663;48.996;8.334;2023-07-08T07:21:07;100372.94;;;30.40
19061;BMP280;9663;48.996;8.334;2023-07-08T07:23:33;100372.94;;;30.40
19061;BMP280;9663;48.996;8.334;2023-07-08T07:25:58;100377.09;;;30.42
19061;BMP280;9663;48.996;8.334;2023-07-08T07:28:24;100370.78;;;30.45
19061;BMP280;9663;48.996;8.334;2023-07-08T07:30:57;100363.66;;;30.47
19061;BMP280;9663;48.996;8.334;2023-07-08T07:33:23;100369.03;;;30.55
19061;BMP280;9663;48.996;8.334;2023-07-08T07:35:49;100373.41;;;30.65
19061;BMP280;9663;48.996;8.334;2023-07-08T07:38:16;100360.50;;;30.73
19061;BMP280;9663;48.996;8.334;2023-07-08T07:40:42;100368.63;;;30.79
19061;BMP280;9663;48.996;8.334;2023-07-08T07:43:08;100366.09;;;30.89
19061;BMP280;9663;48.996;8.334;2023-07-08T07:45:34;100363.97;;;31.03
19061;BMP280;9663;48.996;8.334;2023-07-08T07:48:00;100364.56;;;31.16
19061;BMP280;9663;48.996;8.334;2023-07-08T07:50:26;100354.13;;;31.25
19061;BMP280;9663;48.996;8.334;2023-07-08T07:52:52;100359.00;;;31.39
19061;BMP280;9663;48.996;8.334;2023-07-08T07:55:18;100363.28;;;31.49
19061;BMP280;9663;48.996;8.334;2023-07-08T07:57:44;100363.19;;;31.60
19061;BMP280;9663;48.996;8.334;2023-07-08T08:00:12;100356.59;;;31.75
19061;BMP280;9663;48.996;8.334;2023-07-08T08:02:43;100357.03;;;31.90
19061;BMP280;9663;48.996;8.334;2023-07-08T08:05:08;100354.25;;;32.00
19061;BMP280;9663;48.996;8.334;2023-07-08T08:07:34;100362.13;;;32.10
19061;BMP280;9663;48.996;8.334;2023-07-08T08:10:02;100362.97;;;32.20
19061;BMP280;9663;48.996;8.334;2023-07-08T08:12:28;100372.34;;;32.32
19061;BMP280;9663;48.996;8.334;2023-07-08T08:14:54;100374.84;;;32.42
19061;BMP280;9663;48.996;8.334;2023-07-08T08:17:20;100374.84;;;32.52
19061;BMP280;9663;48.996;8.334;2023-07-08T08:19:46;100368.31;;;32.56
19061;BMP280;9663;48.996;8.334;2023-07-08T08:22:11;100375.09;;;32.58
19061;BMP280;9663;48.996;8.334;2023-07-08T08:24:37;100387.91;;;32.61
19061;BMP280;9663;48.996;8.334;2023-07-08T08:27:03;100380.75;;;32.63
19061;BMP280;9663;48.996;8.334;2023-07-08T08:29:29;100388.34;;;32.66
19061;BMP280;9663;48.996;8.334;2023-07-08T08:31:54;100386.13;;;32.71
19061;BMP280;9663;48.996;8.334;2023-07-08T08:34:20;100394.81;;;32.81
19061;BMP280;9663;48.996;8.334;2023-07-08T08:36:46;100392.03;;;32.92
19061;BMP280;9663;48.996;8.334;2023-07-08T08:39:12;100387.84;;;32.99
19061;BMP280;9663;48.996;8.334;2023-07-08T08:41:40;100388.81;;;33.07
19061;BMP280;9663;48.996;8.334;2023-07-08T08:44:14;100393.03;;;33.18
19061;BMP280;9663;48.996;8.334;2023-07-08T08:47:06;100391.06;;;33.20
19061;BMP280;9663;48.996;8.334;2023-07-08T08:49:50;100386.75;;;33.28
19061;BMP280;9663;48.996;8.334;2023-07-08T08:52:26;100400.94;;;33.35
19061;BMP280;9663;48.996;8.334;2023-07-08T08:54:52;100380.63;;;33.37
19061;BMP280;9663;48.996;8.334;2023-07-08T09:00:46;100387.13;;;33.42
19061;BMP280;9663;48.996;8.334;2023-07-08T09:03:48;100390.00;;;33.49
19061;BMP280;9663;48.996;8.334;2023-07-08T09:06:27;100390.31;;;33.63
19061;BMP280;9663;48.996;8.334;2023-07-08T09:08:56;100396.63;;;33.70
19061;BMP280;9663;48.996;8.334;2023-07-08T09:11:42;100380.94;;;33.78
19061;BMP280;9663;48.996;8.334;2023-07-08T09:14:18;100387.31;;;34.37
19061;BMP280;9663;48.996;8.334;2023-07-08T09:25:32;100383.53;;;34.05
19061;BMP280;9663;48.996;8.334;2023-07-08T09:27:59;100384.06;;;34.08
19061;BMP280;9663;48.996;8.334;2023-07-08T09:30:25;100377.53;;;34.12
19061;BMP280;9663;48.996;8.334;2023-07-08T09:33:02;100374.41;;;34.16
19061;BMP280;9663;48.996;8.334;2023-07-08T09:35:43;100378.72;;;34.17
19061;BMP280;9663;48.996;8.334;2023-07-08T09:38:26;100379.38;;;34.19
19061;BMP280;9663;48.996;8.334;2023-07-08T09:40:53;100382.22;;;34.26
19061;BMP280;9663;48.996;8.334;2023-07-08T09:43:34;100375.53;;;34.31
19061;BMP280;9663;48.996;8.334;2023-07-08T09:46:03;100382.47;;;34.75
19061;BMP280;9663;48.996;8.334;2023-07-08T09:48:35;100383.88;;;34.44
19061;BMP280;9663;48.996;8.334;2023-07-08T09:51:03;100374.00;;;34.38
19061;BMP280;9663;48.996;8.334;2023-07-08T09:53:29;100379.91;;;34.40
19061;BMP280;9663;48.996;8.334;2023-07-08T09:56:00;100372.38;;;34.45
19061;BMP280;9663;48.996;8.334;2023-07-08T09:58:35;100377.34;;;34.48
19061;BMP280;9663;48.996;8.334;2023-07-08T10:01:12;100377.38;;;34.56
19061;BMP280;9663;48.996;8.334;2023-07-08T10:03:39;100375.31;;;34.67
19061;BMP280;9663;48.996;8.334;2023-07-08T10:06:21;100382.59;;;34.73
19061;BMP280;9663;48.996;8.334;2023-07-08T10:08:47;100365.84;;;34.82
19061;BMP280;9663;48.996;8.334;2023-07-08T10:11:22;100348.34;;;34.91
19061;BMP280;9663;48.996;8.334;2023-07-08T10:13:54;100361.88;;;34.96
19061;BMP280;9663;48.996;8.334;2023-07-08T10:16:33;100370.59;;;34.96
19061;BMP280;9663;48.996;8.334;2023-07-08T10:18:59;100362.88;;;35.02
19061;BMP280;9663;48.996;8.334;2023-07-08T10:24:58;100357.09;;;34.99
19061;BMP280;9663;48.996;8.334;2023-07-08T10:28:24;100360.75;;;35.06
19061;BMP280;9663;48.996;8.334;2023-07-08T10:40:02;100368.72;;;35.63
19061;BMP280;9663;48.996;8.334;2023-07-08T10:45:17;100379.78;;;35.25
19061;BMP280;9663;48.996;8.334;2023-07-08T10:56:23;100369.16;;;35.42
19061;BMP280;9663;48.996;8.334;2023-07-08T11:02:35;100367.34;;;35.43
19061;BMP280;9663;48.996;8.334;2023-07-08T11:08:03;100377.13;;;35.58
19061;BMP280;9663;48.996;8.334;2023-07-08T11:10:58;100374.31;;;35.60
19061;BMP280;9663;48.996;8.334;2023-07-08T11:13:29;100367.56;;;35.73
19061;BMP280;9663;48.996;8.334;2023-07-08T11:16:24;100366.41;;;35.76
19061;BMP280;9663;48.996;8.334;2023-07-08T11:21:43;100373.56;;;35.83
19061;BMP280;9663;48.996;8.334;2023-07-08T11:24:35;100374.38;;;35.84
19061;BMP280;9663;48.996;8.334;2023-07-08T11:27:22;100379.19;;;35.96
19061;BMP280;9663;48.996;8.334;2023-07-08T11:30:36;100369.84;;;36.25
19061;BMP280;9663;48.996;8.334;2023-07-08T11:32:47;100369.56;;;37.36
19061;BMP280;9663;48.996;8.334;2023-07-08T11:35:29;100345.19;;;38.74
19061;BMP280;9663;48.996;8.334;2023-07-08T11:37:56;100359.88;;;40.04
19061;BMP280;9663;48.996;8.334;2023-07-08T11:40:24;100349.59;;;41.03
19061;BMP280;9663;48.996;8.334;2023-07-08T11:42:52;100338.03;;;41.96
19061;BMP280;9663;48.996;8.334;2023-07-08T11:47:49;100324.16;;;43.08
19061;BMP280;9663;48.996;8.334;2023-07-08T11:50:37;100326.78;;;43.21
19061;BMP280;9663;48.996;8.334;2023-07-08T11:53:09;100314.56;;;43.44
19061;BMP280;9663;48.996;8.334;2023-07-08T11:55:46;100317.59;;;43.84
19061;BMP280;9663;48.996;8.334;2023-07-08T11:58:28;100311.75;;;44.25
19061;BMP280;9663;48.996;8.334;2023-07-08T12:01:22;100317.13;;;44.60
19061;BMP280;9663;48.996;8.334;2023-07-08T12:08:59;100293.94;;;46.41
19061;BMP280;9663;48.996;8.334;2023-07-08T12:11:34;100293.69;;;46.76
19061;BMP280;9663;48.996;8.334;2023-07-08T12:14:03;100294.25;;;46.78
19061;BMP280;9663;48.996;8.334;2023-07-08T12:16:31;100292.50;;;46.84
19061;BMP280;9663;48.996;8.334;2023-07-08T12:18:59;100294.81;;;47.19
19061;BMP280;9663;48.996;8.334;2023-07-08T12:21:27;100295.75;;;47.52
19061;BMP280;9663;48.996;8.334;2023-07-08T12:23:54;100293.63;;;47.54
19061;BMP280;9663;48.996;8.334;2023-07-08T12:26:22;100293.44;;;47.88
19061;BMP280;9663;48.996;8.334;2023-07-08T12:28:50;100301.38;;;48.49
19061;BMP280;9663;48.996;8.334;2023-07-08T12:31:20;100284.53;;;48.74
19061;BMP280;9663;48.996;8.334;2023-07-08T12:33:47;100284.03;;;48.77
19061;BMP280;9663;48.996;8.334;2023-07-08T12:36:23;100290.28;;;48.62
19061;BMP280;9663;48.996;8.334;2023-07-08T12:38:55;100292.78;;;48.30
19061;BMP280;9663;48.996;8.334;2023-07-08T12:41:32;100284.41;;;48.48
19061;BMP280;9663;48.996;8.334;2023-07-08T12:43:59;100280.72;;;48.71
19061;BMP280;9663;48.996;8.334;2023-07-08T12:46:26;100282.97;;;49.00
19061;BMP280;9663;48.996;8.334;2023-07-08T12:48:52;100279.47;;;49.25
19061;BMP280;9663;48.996;8.334;2023-07-08T12:51:26;100278.97;;;49.55
19061;BMP280;9663;48.996;8.334;2023-07-08T12:53:53;100277.44;;;49.63
19061;BMP280;9663;48.996;8.334;2023-07-08T12:56:23;100271.28;;;49.68
19061;BMP280;9663;48.996;8.334;2023-07-08T12:58:52;100275.03;;;49.93
19061;BMP280;9663;48.996;8.334;2023-07-08T13:01:25;100268.59;;;50.04
19061;BMP280;9663;48.996;8.334;2023-07-08T13:03:56;100270.59;;;50.18
19061;BMP280;9663;48.996;8.334;2023-07-08T13:06:31;100266.34;;;50.27
19061;BMP280;9663;48.996;8.334;2023-07-08T13:11:57;100276.25;;;49.81
19061;BMP280;9663;48.996;8.334;2023-07-08T13:14:25;100269.22;;;49.80
19061;BMP280;9663;48.996;8.334;2023-07-08T13:16:51;100264.66;;;49.80
19061;BMP280;9663;48.996;8.334;2023-07-08T13:19:18;100262.41;;;49.67
19061;BMP280;9663;48.996;8.334;2023-07-08T13:21:44;100267.13;;;49.87
19061;BMP280;9663;48.996;8.334;2023-07-08T13:24:11;100262.25;;;50.20
19061;BMP280;9663;48.996;8.334;2023-07-08T13:26:37;100261.69;;;50.64
19061;BMP280;9663;48.996;8.334;2023-07-08T13:29:14;100256.47;;;51.18
19061;BMP280;9663;48.996;8.334;2023-07-08T13:31:56;100252.22;;;51.77
19061;BMP280;9663;48.996;8.334;2023-07-08T13:34:24;100257.03;;;52.09
19061;BMP280;9663;48.996;8.334;2023-07-08T13:36:52;100251.88;;;52.28
19061;BMP280;9663;48.996;8.334;2023-07-08T13:39:33;100244.53;;;52.33
19061;BMP280;9663;48.996;8.334;2023-07-08T13:42:01;100252.44;;;52.25
19061;BMP280;9663;48.996;8.334;2023-07-08T13:44:28;100249.22;;;52.08
19061;BMP280;9663;48.996;8.334;2023-07-08T13:46:57;100255.44;;;51.79
19061;BMP280;9663;48.996;8.334;2023-07-08T13:52:19;100248.41;;;51.33
19061;BMP280;9663;48.996;8.334;2023-07-08T13:54:58;100251.03;;;50.98
19061;BMP280;9663;48.996;8.334;2023-07-08T13:57:35;100253.78;;;50.48
19061;BMP280;9663;48.996;8.334;2023-07-08T14:00:04;100242.75;;;49.72
19061;BMP280;9663;48.996;8.334;2023-07-08T14:02:32;100258.09;;;48.93
19061;BMP280;9663;48.996;8.334;2023-07-08T14:04:59;100252.34;;;48.25
19061;BMP280;9663;48.996;8.334;2023-07-08T14:07:32;100246.66;;;47.57
19061;BMP280;9663;48.996;8.334;2023-07-08T14:09:58;100245.31;;;46.99
19061;BMP280;9663;48.996;8.334;2023-07-08T14:12:24;100237.59;;;46.63
19061;BMP280;9663;48.996;8.334;2023-07-08T14:14:51;100240.69;;;46.33
19061;BMP280;9663;48.996;8.334;2023-07-08T14:17:25;100247.19;;;46.03
19061;BMP280;9663;48.996;8.334;2023-07-08T14:19:52;100238.66;;;45.71
19061;BMP280;9663;48.996;8.334;2023-07-08T14:22:23;100241.28;;;45.49
19061;BMP280;9663;48.996;8.334;2023-07-08T14:24:49;100240.31;;;45.32
19061;BMP280;9663;48.996;8.334;2023-07-08T14:27:15;100235.00;;;45.14
19061;BMP280;9663;48.996;8.334;2023-07-08T14:29:46;100236.94;;;45.07
19061;BMP280;9663;48.996;8.334;2023-07-08T14:32:18;100237.22;;;45.17
19061;BMP280;9663;48.996;8.334;2023-07-08T14:34:53;100231.16;;;45.51
19061;BMP280;9663;48.996;8.334;2023-07-08T14:37:20;100237.69;;;46.18
19061;BMP280;9663;48.996;8.334;2023-07-08T14:39:47;100216.69;;;47.04
19061;BMP280;9663;48.996;8.334;2023-07-08T14:42:16;100212.31;;;47.75
19061;BMP280;9663;48.996;8.334;2023-07-08T14:44:44;100217.38;;;48.25
19061;BMP280;9663;48.996;8.334;2023-07-08T14:47:14;100222.81;;;48.68
19061;BMP280;9663;48.996;8.334;2023-07-08T14:49:41;100220.72;;;48.75
19061;BMP280;9663;48.996;8.334;2023-07-08T14:52:08;100219.47;;;48.40
19061;BMP280;9663;48.996;8.334;2023-07-08T14:54:34;100223.53;;;48.21
19061;BMP280;9663;48.996;8.334;2023-07-08T14:57:00;100224.31;;;48.38
19061;BMP280;9663;48.996;8.334;2023-07-08T14:59:31;100222.97;;;48.83
19061;BMP280;9663;48.996;8.334;2023-07-08T15:01:59;100215.81;;;49.41
19061;BMP280;9663;48.996;8.334;2023-07-08T15:04:26;100221.13;;;49.98
19061;BMP280;9663;48.996;8.334;2023-07-08T15:06:54;100225.53;;;50.65
19061;BMP280;9663;48.996;8.334;2023-07-08T15:09:22;100230.50;;;50.97
19061;BMP280;9663;48.996;8.334;2023-07-08T15:11:48;100230.03;;;51.25
19061;BMP280;9663;48.996;8.334;2023-07-08T15:14:22;100214.91;;;51.49
19061;BMP280;9663;48.996;8.334;2023-07-08T15:16:49;100220.31;;;51.64
19061;BMP280;9663;48.996;8.334;2023-07-08T15:19:16;100205.16;;;51.68
19061;BMP280;9663;48.996;8.334;2023-07-08T15:21:42;100215.41;;;51.85
19061;BMP280;9663;48.996;8.334;2023-07-08T15:24:11;100222.41;;;52.11